sensor_id;sensor_type;location;lat;lon;timestamp;pressure;altitude;pressure_sealevel;temperature;humidity
48774;BME280;34576;0.000;0.000;2022-07-01T00:00:24;96686.69;;;21.98;57.74
48774;BME280;34576;0.000;0.000;2022-07-01T00:07:25;96678.03;;;22.01;58.02
48774;BME280;34576;0.000;0.000;2022-07-01T00:14:26;96697.97;;;21.95;57.94
48774;BME280;34576;0.000;0.000;2022-07-01T00:21:26;96722.00;;;21.86;58.20
48774;BME280;34576;0.000;0.000;2022-07-01T00:28:26;96729.03;;;21.82;58.25
48774;BME280;34576;0.000;0.000;2022-07-01T00:35:27;96733.81;;;21.85;57.97
48774;BME280;34576;0.000;0.000;2022-07-01T00:42:27;96736.38;;;21.90;58.31
48774;BME280;34576;0.000;0.000;2022-07-01T00:49:27;96747.38;;;21.88;58.28
48774;BME280;34576;0.000;0.000;2022-07-01T00:56:28;96736.66;;;21.88;58.11
48774;BME280;34576;0.000;0.000;2022-07-01T01:03:29;96725.19;;;21.88;57.60
48774;BME280;34576;0.000;0.000;2022-07-01T01:10:30;96719.00;;;21.87;57.43
48774;BME280;34576;0.000;0.000;2022-07-01T01:17:30;96729.25;;;21.85;57.30
48774;BME280;34576;0.000;0.000;2022-07-01T01:24:31;96737.19;;;21.91;57.38
48774;BME280;34576;0.000;0.000;2022-07-01T01:31:31;96736.97;;;21.87;57.09
48774;BME280;34576;0.000;0.000;2022-07-01T01:38:34;96722.59;;;21.83;57.28
48774;BME280;34576;0.000;0.000;2022-07-01T01:45:34;96740.25;;;21.84;56.68
48774;BME280;34576;0.000;0.000;2022-07-01T01:52:35;96746.41;;;21.84;56.55
48774;BME280;34576;0.000;0.000;2022-07-01T01:59:35;96723.69;;;21.82;56.20
48774;BME280;34576;0.000;0.000;2022-07-01T02:06:35;96744.63;;;21.80;56.26
48774;BME280;34576;0.000;0.000;2022-07-01T02:13:36;96730.94;;;21.81;56.13
48774;BME280;34576;0.000;0.000;2022-07-01T02:20:37;96738.47;;;21.79;55.79
48774;BME280;34576;0.000;0.000;2022-07-01T02:27:37;96751.06;;;21.79;55.73
48774;BME280;34576;0.000;0.000;2022-07-01T02:34:37;96766.03;;;21.80;55.56
48774;BME280;34576;0.000;0.000;2022-07-01T02:41:38;96774.16;;;21.75;55.98
48774;BME280;34576;0.000;0.000;2022-07-01T02:48:58;96822.53;;;21.64;55.68
48774;BME280;34576;0.000;0.000;2022-07-01T02:55:58;96842.38;;;21.77;55.70
48774;BME280;34576;0.000;0.000;2022-07-01T03:02:58;96841.09;;;21.75;55.61
48774;BME280;34576;0.000;0.000;2022-07-01T03:09:59;96831.50;;;21.74;55.60
48774;BME280;34576;0.000;0.000;2022-07-01T03:16:59;96834.72;;;21.70;55.37
48774;BME280;34576;0.000;0.000;2022-07-01T03:23:59;96833.16;;;21.69;55.28
48774;BME280;34576;0.000;0.000;2022-07-01T03:31:00;96830.19;;;21.71;55.29
48774;BME280;34576;0.000;0.000;2022-07-01T03:38:01;96840.09;;;21.70;55.43
48774;BME280;34576;0.000;0.000;2022-07-01T03:45:03;96845.75;;;21.69;55.53
48774;BME280;34576;0.000;0.000;2022-07-01T03:52:03;96845.75;;;21.69;55.34
48774;BME280;34576;0.000;0.000;2022-07-01T03:59:04;96861.63;;;21.93;55.50
48774;BME280;34576;0.000;0.000;2022-07-01T04:06:04;96870.19;;;21.95;56.01
48774;BME280;34576;0.000;0.000;2022-07-01T04:13:05;96887.03;;;21.96;56.60
48774;BME280;34576;0.000;0.000;2022-07-01T04:20:05;96862.63;;;21.97;56.26
48774;BME280;34576;0.000;0.000;2022-07-01T04:27:06;96848.31;;;20.89;57.10
48774;BME280;34576;0.000;0.000;2022-07-01T04:34:07;96837.41;;;20.66;58.06
48774;BME280;34576;0.000;0.000;2022-07-01T04:41:07;96812.84;;;20.64;57.85
48774;BME280;34576;0.000;0.000;2022-07-01T04:48:26;96788.22;;;20.48;58.17
48774;BME280;34576;0.000;0.000;2022-07-01T04:55:27;96820.03;;;20.26;58.41
48774;BME280;34576;0.000;0.000;2022-07-01T05:02:27;96872.47;;;19.92;59.15
48774;BME280;34576;0.000;0.000;2022-07-01T05:09:27;96884.69;;;20.90;56.65
48774;BME280;34576;0.000;0.000;2022-07-01T05:16:28;96893.28;;;21.06;56.17
48774;BME280;34576;0.000;0.000;2022-07-01T05:23:28;96900.66;;;21.14;56.50
48774;BME280;34576;0.000;0.000;2022-07-01T05:30:28;96895.53;;;21.18;56.39
48774;BME280;34576;0.000;0.000;2022-07-01T05:37:28;96871.94;;;21.20;56.48
48774;BME280;34576;0.000;0.000;2022-07-01T05:44:29;96864.06;;;21.29;56.61
48774;BME280;34576;0.000;0.000;2022-07-01T05:51:29;96867.53;;;21.29;56.33
48774;BME280;34576;0.000;0.000;2022-07-01T05:58:29;96857.22;;;21.03;56.66
48774;BME280;34576;0.000;0.000;2022-07-01T06:05:30;96866.00;;;21.23;56.22
48774;BME280;34576;0.000;0.000;2022-07-01T06:12:31;96891.91;;;21.09;55.86
48774;BME280;34576;0.000;0.000;2022-07-01T06:19:31;96894.13;;;21.20;55.34
48774;BME280;34576;0.000;0.000;2022-07-01T06:26:31;96909.03;;;21.27;55.61
48774;BME280;34576;0.000;0.000;2022-07-01T06:33:31;96903.56;;;21.18;55.54
48774;BME280;34576;0.000;0.000;2022-07-01T06:40:32;96897.84;;;21.06;55.54
48774;BME280;34576;0.000;0.000;2022-07-01T06:47:32;96890.53;;;21.11;55.63
48774;BME280;34576;0.000;0.000;2022-07-01T06:54:33;96900.94;;;21.13;55.19
48774;BME280;34576;0.000;0.000;2022-07-01T07:01:37;96898.28;;;21.13;55.32
48774;BME280;34576;0.000;0.000;2022-07-01T07:08:37;96898.50;;;21.16;54.92
48774;BME280;34576;0.000;0.000;2022-07-01T07:15:38;96897.09;;;21.19;54.84
48774;BME280;34576;0.000;0.000;2022-07-01T07:22:41;96894.13;;;21.20;54.66
48774;BME280;34576;0.000;0.000;2022-07-01T07:29:41;96915.41;;;21.12;54.90
48774;BME280;34576;0.000;0.000;2022-07-01T07:36:42;96934.25;;;21.20;54.77
48774;BME280;34576;0.000;0.000;2022-07-01T07:43:42;96944.69;;;21.22;55.44
48774;BME280;34576;0.000;0.000;2022-07-01T07:50:43;96958.13;;;21.17;55.29
48774;BME280;34576;0.000;0.000;2022-07-01T07:57:43;96956.38;;;20.88;55.53
48774;BME280;34576;0.000;0.000;2022-07-01T08:04:43;96951.19;;;21.16;55.44
48774;BME280;34576;0.000;0.000;2022-07-01T08:11:44;96961.41;;;21.14;55.16
48774;BME280;34576;0.000;0.000;2022-07-01T08:18:44;96951.56;;;21.09;55.32
48774;BME280;34576;0.000;0.000;2022-07-01T08:25:44;96960.53;;;21.18;55.24
48774;BME280;34576;0.000;0.000;2022-07-01T08:32:45;96964.34;;;21.12;55.47
48774;BME280;34576;0.000;0.000;2022-07-01T08:39:46;96972.53;;;21.21;55.50
48774;BME280;34576;0.000;0.000;2022-07-01T08:46:46;96968.53;;;21.18;55.58
48774;BME280;34576;0.000;0.000;2022-07-01T08:53:46;96969.34;;;21.19;55.52
48774;BME280;34576;0.000;0.000;2022-07-01T09:00:47;96972.00;;;21.19;55.41
48774;BME280;34576;0.000;0.000;2022-07-01T09:07:47;96973.31;;;21.21;54.69
48774;BME280;34576;0.000;0.000;2022-07-01T09:14:48;96973.03;;;21.23;54.99
48774;BME280;34576;0.000;0.000;2022-07-01T09:21:49;96972.44;;;21.26;55.13
48774;BME280;34576;0.000;0.000;2022-07-01T09:28:56;96968.78;;;21.22;54.81
48774;BME280;34576;0.000;0.000;2022-07-01T09:35:57;96959.06;;;21.26;54.80
48774;BME280;34576;0.000;0.000;2022-07-01T09:42:57;96956.69;;;21.25;54.61
48774;BME280;34576;0.000;0.000;2022-07-01T09:49:57;96958.56;;;21.24;54.41
48774;BME280;34576;0.000;0.000;2022-07-01T09:56:58;96965.72;;;21.29;54.39
48774;BME280;34576;0.000;0.000;2022-07-01T10:03:59;96981.00;;;21.28;54.21
48774;BME280;34576;0.000;0.000;2022-07-01T10:25:34;97004.50;;;21.31;54.42
48774;BME280;34576;0.000;0.000;2022-07-01T10:32:34;97022.88;;;21.38;54.92
48774;BME280;34576;0.000;0.000;2022-07-01T10:46:55;97020.16;;;21.19;54.77
48774;BME280;34576;0.000;0.000;2022-07-01T10:53:58;97030.50;;;21.45;55.17
48774;BME280;34576;0.000;0.000;2022-07-01T11:00:58;97027.78;;;21.50;55.46
48774;BME280;34576;0.000;0.000;2022-07-01T11:07:59;97038.50;;;21.50;55.07
48774;BME280;34576;0.000;0.000;2022-07-01T11:14:59;97034.72;;;21.51;55.32
48774;BME280;34576;0.000;0.000;2022-07-01T11:22:05;97025.38;;;21.53;54.95
48774;BME280;34576;0.000;0.000;2022-07-01T11:29:08;97033.41;;;21.53;55.60
48774;BME280;34576;0.000;0.000;2022-07-01T11:36:09;97032.00;;;21.56;55.30
48774;BME280;34576;0.000;0.000;2022-07-01T11:43:28;97032.00;;;21.56;55.31
48774;BME280;34576;0.000;0.000;2022-07-01T11:50:29;97025.56;;;21.57;54.12
48774;BME280;34576;0.000;0.000;2022-07-01T11:57:30;97025.28;;;21.59;54.48
48774;BME280;34576;0.000;0.000;2022-07-01T12:04:30;97015.59;;;21.63;54.37
48774;BME280;34576;0.000;0.000;2022-07-01T12:11:30;97026.81;;;21.65;53.57
48774;BME280;34576;0.000;0.000;2022-07-01T12:18:31;97016.78;;;21.70;53.16
48774;BME280;34576;0.000;0.000;2022-07-01T12:25:31;97010.94;;;21.68;52.87
48774;BME280;34576;0.000;0.000;2022-07-01T12:32:34;97013.56;;;21.74;53.86
48774;BME280;34576;0.000;0.000;2022-07-01T12:39:46;97014.63;;;21.72;52.06
48774;BME280;34576;0.000;0.000;2022-07-01T12:46:46;97016.22;;;21.74;52.45
48774;BME280;34576;0.000;0.000;2022-07-01T12:53:47;97009.78;;;21.75;52.84
48774;BME280;34576;0.000;0.000;2022-07-01T13:00:48;96995.31;;;21.76;53.25
48774;BME280;34576;0.000;0.000;2022-07-01T13:07:49;96997.31;;;21.08;50.11
48774;BME280;34576;0.000;0.000;2022-07-01T13:14:50;96995.50;;;21.03;47.83
48774;BME280;34576;0.000;0.000;2022-07-01T13:21:50;96993.41;;;20.76;49.52
48774;BME280;34576;0.000;0.000;2022-07-01T13:28:50;96996.94;;;20.95;48.73
48774;BME280;34576;0.000;0.000;2022-07-01T13:35:51;96990.16;;;20.79;48.33
48774;BME280;34576;0.000;0.000;2022-07-01T13:42:51;96998.97;;;21.03;49.50
48774;BME280;34576;0.000;0.000;2022-07-01T13:49:51;97006.44;;;21.45;49.84
48774;BME280;34576;0.000;0.000;2022-07-01T13:56:51;97010.34;;;21.33;46.98
48774;BME280;34576;0.000;0.000;2022-07-01T14:03:52;97003.84;;;21.40;48.09
48774;BME280;34576;0.000;0.000;2022-07-01T14:10:53;97005.44;;;21.41;47.56
48774;BME280;34576;0.000;0.000;2022-07-01T14:17:54;97003.13;;;21.53;49.21
48774;BME280;34576;0.000;0.000;2022-07-01T14:24:54;97007.34;;;21.59;50.30
48774;BME280;34576;0.000;0.000;2022-07-01T14:31:54;96995.25;;;21.62;50.87
48774;BME280;34576;0.000;0.000;2022-07-01T14:38:54;97004.00;;;21.67;50.46
48774;BME280;34576;0.000;0.000;2022-07-01T14:45:55;97005.59;;;21.68;50.60
48774;BME280;34576;0.000;0.000;2022-07-01T14:52:55;97001.84;;;21.69;49.57
48774;BME280;34576;0.000;0.000;2022-07-01T14:59:55;97003.41;;;21.70;50.74
48774;BME280;34576;0.000;0.000;2022-07-01T15:06:57;96998.56;;;21.72;50.36
48774;BME280;34576;0.000;0.000;2022-07-01T15:13:57;97008.19;;;21.74;50.28
48774;BME280;34576;0.000;0.000;2022-07-01T15:20:58;97013.25;;;21.75;50.62
48774;BME280;34576;0.000;0.000;2022-07-01T15:27:58;97021.00;;;21.77;51.08
48774;BME280;34576;0.000;0.000;2022-07-01T15:34:59;97010.78;;;21.79;51.43
48774;BME280;34576;0.000;0.000;2022-07-01T15:41:59;97011.59;;;21.79;51.31
48774;BME280;34576;0.000;0.000;2022-07-01T15:49:03;97002.47;;;21.80;50.77
48774;BME280;34576;0.000;0.000;2022-07-01T15:56:09;97003.28;;;21.81;49.43
48774;BME280;34576;0.000;0.000;2022-07-01T16:03:09;97010.19;;;21.82;48.95
48774;BME280;34576;0.000;0.000;2022-07-01T16:10:11;97008.31;;;21.82;49.39
48774;BME280;34576;0.000;0.000;2022-07-01T16:17:16;97012.88;;;21.82;48.99
48774;BME280;34576;0.000;0.000;2022-07-01T16:24:16;97013.41;;;21.84;48.70
48774;BME280;34576;0.000;0.000;2022-07-01T16:31:18;96998.69;;;21.81;49.23
48774;BME280;34576;0.000;0.000;2022-07-01T16:38:22;97010.19;;;21.82;49.50
48774;BME280;34576;0.000;0.000;2022-07-01T16:45:33;97009.94;;;21.83;48.63
48774;BME280;34576;0.000;0.000;2022-07-01T16:52:37;97014.47;;;21.83;47.83
48774;BME280;34576;0.000;0.000;2022-07-01T16:59:38;97019.03;;;21.82;49.17
48774;BME280;34576;0.000;0.000;2022-07-01T17:06:41;97016.38;;;21.82;49.58
48774;BME280;34576;0.000;0.000;2022-07-01T17:13:42;97020.91;;;21.82;49.36
48774;BME280;34576;0.000;0.000;2022-07-01T17:20:44;97032.44;;;21.82;49.48
48774;BME280;34576;0.000;0.000;2022-07-01T17:35:00;97042.84;;;21.84;49.37
48774;BME280;34576;0.000;0.000;2022-07-01T17:42:01;97056.25;;;21.84;49.63
48774;BME280;34576;0.000;0.000;2022-07-01T17:49:02;97060.81;;;21.83;49.05
48774;BME280;34576;0.000;0.000;2022-07-01T17:56:03;97065.34;;;21.83;49.43
48774;BME280;34576;0.000;0.000;2022-07-01T18:03:04;97066.44;;;21.82;49.25
48774;BME280;34576;0.000;0.000;2022-07-01T18:10:05;97066.44;;;21.82;49.19
48774;BME280;34576;0.000;0.000;2022-07-01T18:17:11;97069.09;;;21.82;49.85
48774;BME280;34576;0.000;0.000;2022-07-01T18:24:16;97067.53;;;21.81;49.28
48774;BME280;34576;0.000;0.000;2022-07-01T18:31:17;97060.28;;;21.81;50.08
48774;BME280;34576;0.000;0.000;2022-07-01T18:38:18;97058.41;;;21.82;50.79
48774;BME280;34576;0.000;0.000;2022-07-01T18:45:20;97070.72;;;21.83;50.75
48774;BME280;34576;0.000;0.000;2022-07-01T18:52:20;97081.41;;;21.83;50.37
48774;BME280;34576;0.000;0.000;2022-07-01T18:59:21;97083.03;;;21.84;51.60
48774;BME280;34576;0.000;0.000;2022-07-01T19:06:22;97097.78;;;21.81;52.20
48774;BME280;34576;0.000;0.000;2022-07-01T19:13:22;97100.25;;;21.78;52.64
48774;BME280;34576;0.000;0.000;2022-07-01T19:20:23;97105.59;;;21.78;52.15
48774;BME280;34576;0.000;0.000;2022-07-01T19:27:23;97122.16;;;21.80;51.85
48774;BME280;34576;0.000;0.000;2022-07-01T19:34:23;97126.56;;;21.70;51.95
48774;BME280;34576;0.000;0.000;2022-07-01T19:41:24;97135.41;;;21.47;52.10
48774;BME280;34576;0.000;0.000;2022-07-01T19:48:25;97137.66;;;21.40;52.37
48774;BME280;34576;0.000;0.000;2022-07-01T19:55:26;97144.69;;;21.30;52.54
48774;BME280;34576;0.000;0.000;2022-07-01T20:02:26;97155.03;;;21.42;52.16
48774;BME280;34576;0.000;0.000;2022-07-01T20:09:27;97156.31;;;21.45;52.26
48774;BME280;34576;0.000;0.000;2022-07-01T20:16:27;97179.91;;;21.43;52.20
48774;BME280;34576;0.000;0.000;2022-07-01T20:23:27;97187.19;;;21.37;52.59
48774;BME280;34576;0.000;0.000;2022-07-01T20:30:28;97199.50;;;21.38;52.29
48774;BME280;34576;0.000;0.000;2022-07-01T20:37:28;97195.94;;;21.43;51.95
48774;BME280;34576;0.000;0.000;2022-07-01T20:44:28;97206.78;;;21.32;52.09
48774;BME280;34576;0.000;0.000;2022-07-01T20:51:29;97208.59;;;21.37;51.98
48774;BME280;34576;0.000;0.000;2022-07-01T20:58:29;97202.00;;;21.29;52.19
48774;BME280;34576;0.000;0.000;2022-07-01T21:05:29;97203.69;;;21.20;52.08
48774;BME280;34576;0.000;0.000;2022-07-01T21:12:30;97205.78;;;21.23;52.31
48774;BME280;34576;0.000;0.000;2022-07-01T21:19:30;97213.34;;;21.16;52.37
48774;BME280;34576;0.000;0.000;2022-07-01T21:26:30;97222.94;;;21.22;52.61
48774;BME280;34576;0.000;0.000;2022-07-01T21:33:31;97222.41;;;21.20;52.67
48774;BME280;34576;0.000;0.000;2022-07-01T21:40:31;97219.72;;;21.20;52.54
48774;BME280;34576;0.000;0.000;2022-07-01T21:47:32;97230.06;;;21.02;52.77
48774;BME280;34576;0.000;0.000;2022-07-01T21:54:32;97230.84;;;21.03;53.03
48774;BME280;34576;0.000;0.000;2022-07-01T22:01:33;97234.38;;;20.98;53.19
48774;BME280;34576;0.000;0.000;2022-07-01T22:08:33;97230.22;;;20.82;53.45
48774;BME280;34576;0.000;0.000;2022-07-01T22:15:34;97226.38;;;20.93;53.85
48774;BME280;34576;0.000;0.000;2022-07-01T22:22:35;97228.38;;;21.12;53.11
48774;BME280;34576;0.000;0.000;2022-07-01T22:29:36;97230.22;;;21.16;52.93
48774;BME280;34576;0.000;0.000;2022-07-01T22:36:37;97225.56;;;20.98;53.48
48774;BME280;34576;0.000;0.000;2022-07-01T22:43:37;97232.78;;;20.97;53.33
48774;BME280;34576;0.000;0.000;2022-07-01T22:50:40;97238.44;;;20.91;53.37
48774;BME280;34576;0.000;0.000;2022-07-01T22:58:25;97234.00;;;20.81;53.42
48774;BME280;34576;0.000;0.000;2022-07-01T23:05:05;97240.16;;;20.37;54.96
48774;BME280;34576;0.000;0.000;2022-07-01T23:12:07;97246.03;;;20.78;53.86
48774;BME280;34576;0.000;0.000;2022-07-01T23:19:10;97235.25;;;20.49;54.95
48774;BME280;34576;0.000;0.000;2022-07-01T23:26:11;97240.00;;;20.62;54.47
48774;BME280;34576;0.000;0.000;2022-07-01T23:33:12;97243.13;;;20.75;54.11
48774;BME280;34576;0.000;0.000;2022-07-01T23:40:13;97245.78;;;20.75;54.08
48774;BME280;34576;0.000;0.000;2022-07-01T23:47:14;97244.44;;;20.77;54.08
48774;BME280;34576;0.000;0.000;2022-07-01T23:54:15;97241.28;;;20.65;53.92
